createdAt,value
2022-11-25T00:02:32.347Z,-0.82
2022-11-25T00:07:56.835Z,-0.78
2022-11-25T00:13:20.091Z,-0.80
2022-11-25T00:18:44.701Z,-0.81
2022-11-25T00:24:13.262Z,-0.85
2022-11-25T00:29:35.433Z,-0.85
2022-11-25T00:34:57.631Z,-0.84
2022-11-25T00:40:20.677Z,-0.86
2022-11-25T00:45:42.917Z,-0.89
2022-11-25T00:51:06.026Z,-0.89
2022-11-25T00:56:30.595Z,-0.92
2022-11-25T01:01:53.952Z,-0.92
2022-11-25T01:07:16.358Z,-0.95
2022-11-25T01:12:39.361Z,-0.95
2022-11-25T01:18:04.062Z,-0.93
2022-11-25T01:23:26.275Z,-0.93
2022-11-25T01:28:49.734Z,-0.93
2022-11-25T01:34:23.266Z,-0.93
2022-11-25T01:39:45.556Z,-0.91
2022-11-25T01:45:31.782Z,-0.92
2022-11-25T01:50:56.084Z,-0.94
2022-11-25T01:56:20.267Z,-0.92
2022-11-25T02:01:43.096Z,-0.90
2022-11-25T02:07:10.314Z,-0.92
2022-11-25T02:12:34.987Z,-0.93
2022-11-25T02:17:58.139Z,-0.96
2022-11-25T02:23:52.116Z,-0.96
2022-11-25T02:29:14.565Z,-0.95
2022-11-25T02:34:36.919Z,-0.91
2022-11-25T02:40:00.312Z,-0.87
2022-11-25T02:45:24.811Z,-0.88
2022-11-25T02:50:47.056Z,-0.90
2022-11-25T02:56:10.318Z,-0.88
2022-11-25T03:01:33.184Z,-0.86
2022-11-25T03:06:55.648Z,-0.83
2022-11-25T03:12:20.772Z,-0.84
2022-11-25T03:17:43.730Z,-0.80
2022-11-25T03:23:06.049Z,-0.82
2022-11-25T03:28:28.332Z,-0.87
2022-11-25T03:33:50.528Z,-0.90
2022-11-25T03:39:12.795Z,-0.95
2022-11-25T03:44:36.016Z,-0.89
2022-11-25T03:49:58.685Z,-0.89
2022-11-25T03:55:21.172Z,-0.88
2022-11-25T04:00:44.771Z,-0.90
2022-11-25T04:06:07.701Z,-0.91
2022-11-25T04:17:09.022Z,-0.75
2022-11-25T04:22:31.398Z,-0.83
2022-11-25T04:27:53.690Z,-0.81
2022-11-25T04:33:16.131Z,-0.80
2022-11-25T04:38:39.940Z,-0.80
2022-11-25T04:44:05.528Z,-0.85
2022-11-25T04:49:28.987Z,-0.88
2022-11-25T04:54:51.180Z,-0.87
2022-11-25T05:00:13.913Z,-0.82
2022-11-25T05:05:36.250Z,-0.79
2022-11-25T05:10:58.562Z,-0.77
2022-11-25T05:16:21.090Z,-0.75
2022-11-25T05:21:43.335Z,-0.77
2022-11-25T05:27:06.025Z,-0.80
2022-11-25T05:32:29.374Z,-0.85
2022-11-25T05:37:51.626Z,-0.86
2022-11-25T05:43:13.833Z,-0.84
2022-11-25T05:48:36.095Z,-0.83
2022-11-25T05:53:58.485Z,-0.84
2022-11-25T05:59:22.512Z,-0.85
2022-11-25T06:04:44.745Z,-0.88
2022-11-25T06:10:07.125Z,-0.92
2022-11-25T06:15:30.296Z,-0.98
2022-11-25T06:20:54.865Z,-1.02
2022-11-25T06:26:29.597Z,-1.03
2022-11-25T06:31:51.787Z,-1.06
2022-11-25T06:37:14.487Z,-1.07
2022-11-25T06:42:36.697Z,-1.07
2022-11-25T06:47:59.514Z,-1.06
2022-11-25T06:53:24.224Z,-1.05
2022-11-25T06:58:46.458Z,-1.05
2022-11-25T07:04:13.896Z,-0.99
2022-11-25T07:09:36.546Z,-0.94
2022-11-25T07:14:58.868Z,-0.96
2022-11-25T07:20:22.092Z,-0.98
2022-11-25T07:25:45.759Z,-0.98
2022-11-25T07:31:31.560Z,-0.97
2022-11-25T07:36:37.372Z,-0.95
2022-11-25T07:42:01.492Z,-0.98
2022-11-25T07:47:25.304Z,-0.92
2022-11-25T07:52:49.291Z,-0.95
2022-11-25T07:58:11.533Z,-0.90
2022-11-25T08:03:34.215Z,-0.84
2022-11-25T08:08:57.924Z,-0.80
2022-11-25T08:14:21.365Z,-0.77
2022-11-25T08:19:43.765Z,-0.76
2022-11-25T08:25:06.057Z,-0.74
2022-11-25T08:30:28.542Z,-0.72
2022-11-25T08:35:50.762Z,-0.72
2022-11-25T08:41:16.076Z,-0.61
2022-11-25T08:46:42.054Z,-0.55
2022-11-25T08:52:05.035Z,-0.54
2022-11-25T08:57:27.299Z,-0.48
2022-11-25T09:02:50.267Z,-0.55
2022-11-25T09:08:13.160Z,-0.56
2022-11-25T09:13:35.966Z,-0.59
2022-11-25T09:18:59.933Z,-0.50
2022-11-25T09:24:22.627Z,-0.49
2022-11-25T09:29:44.807Z,-0.37
2022-11-25T09:35:07.195Z,-0.36
2022-11-25T09:40:51.229Z,-0.29
2022-11-25T09:46:49.076Z,-0.41
2022-11-25T09:52:35.094Z,-0.40
2022-11-25T09:58:35.628Z,-0.42
2022-11-25T10:04:13.485Z,-0.47
2022-11-25T10:09:39.671Z,-0.31
2022-11-25T10:15:14.372Z,-0.31
2022-11-25T10:20:52.571Z,-0.16
2022-11-25T10:26:20.078Z,-0.34
2022-11-25T10:31:49.561Z,-0.43
2022-11-25T10:37:16.645Z,-0.38
2022-11-25T10:42:43.356Z,-0.34
2022-11-25T10:48:16.840Z,-0.32
2022-11-25T10:53:43.569Z,-0.27
2022-11-25T10:59:07.292Z,-0.24
2022-11-25T11:04:30.969Z,-0.19
2022-11-25T11:09:54.773Z,-0.25
2022-11-25T11:15:37.216Z,-0.26
2022-11-25T11:21:05.507Z,-0.22
2022-11-25T11:26:43.178Z,-0.18
2022-11-25T11:32:19.287Z,-0.14
2022-11-25T11:38:07.509Z,-0.26
2022-11-25T11:44:05.333Z,-0.20
2022-11-25T11:49:51.613Z,-0.15
2022-11-25T11:55:19.486Z,-0.13
2022-11-25T12:06:19.769Z,0.07
2022-11-25T12:11:49.759Z,-0.13
2022-11-25T12:17:09.256Z,-0.11
2022-11-25T12:22:42.349Z,-0.28
2022-11-25T12:28:43.012Z,-0.39
2022-11-25T12:34:34.017Z,-0.33
2022-11-25T12:40:15.652Z,-0.38
2022-11-25T12:45:43.018Z,-0.33
2022-11-25T12:51:15.342Z,-0.09
2022-11-25T12:56:49.053Z,-0.02
2022-11-25T13:02:40.207Z,0.02
2022-11-25T13:08:39.182Z,0.04
2022-11-25T13:14:27.949Z,-0.06
2022-11-25T13:19:50.941Z,-0.15
2022-11-25T13:25:16.877Z,-0.20
2022-11-25T13:30:54.183Z,-0.19
2022-11-25T13:36:25.465Z,-0.17
2022-11-25T13:42:20.989Z,-0.23
2022-11-25T13:47:47.877Z,-0.28
2022-11-25T13:53:33.127Z,-0.36
2022-11-25T13:59:17.594Z,-0.34
2022-11-25T14:05:17.755Z,-0.40
2022-11-25T14:11:19.252Z,-0.48
2022-11-25T14:17:10.023Z,-0.57
2022-11-25T14:22:54.072Z,-0.67
2022-11-25T14:34:23.569Z,-0.48
2022-11-25T14:40:13.602Z,-0.60
2022-11-25T14:45:49.057Z,-0.62
2022-11-25T14:51:19.573Z,-0.75
2022-11-25T14:56:44.490Z,-0.74
2022-11-25T15:02:14.368Z,-0.77
2022-11-25T15:07:38.323Z,-0.80
2022-11-25T15:13:00.964Z,-0.84
2022-11-25T15:18:27.618Z,-0.86
2022-11-25T15:23:52.475Z,-0.88
2022-11-25T15:29:25.667Z,-0.91
2022-11-25T15:34:49.091Z,-0.91
2022-11-25T15:40:47.815Z,-0.94
2022-11-25T15:46:15.742Z,-0.99
2022-11-25T15:52:05.155Z,-0.95
2022-11-25T15:57:50.604Z,-0.93
2022-11-25T16:03:26.711Z,-0.94
2022-11-25T16:09:04.642Z,-1.00
2022-11-25T16:14:41.928Z,-1.06
2022-11-25T16:20:05.708Z,-1.15
2022-11-25T16:25:29.774Z,-1.23
2022-11-25T16:30:57.737Z,-1.31
2022-11-25T16:36:17.361Z,-1.35
2022-11-25T16:41:41.195Z,-1.41
2022-11-25T16:47:04.222Z,-1.42
2022-11-25T16:52:26.989Z,-1.41
2022-11-25T16:57:51.431Z,-1.36
2022-11-25T17:03:15.394Z,-1.31
2022-11-25T17:08:38.204Z,-1.35
2022-11-25T17:14:05.097Z,-1.36
2022-11-25T17:19:29.456Z,-1.39
2022-11-25T17:24:52.314Z,-1.41
2022-11-25T17:30:21.143Z,-1.44
2022-11-25T17:35:43.621Z,-1.46
2022-11-25T17:41:06.553Z,-1.23
2022-11-25T17:46:33.520Z,-1.29
2022-11-25T17:51:56.393Z,-1.41
2022-11-25T17:57:23.625Z,-1.44
2022-11-25T18:02:46.072Z,-1.48
2022-11-25T18:08:09.331Z,-1.52
2022-11-25T18:13:31.557Z,-1.50
2022-11-25T18:18:53.830Z,-1.47
2022-11-25T18:24:16.116Z,-1.47
2022-11-25T18:29:45.476Z,-1.44
2022-11-25T18:35:07.663Z,-1.46
2022-11-25T18:40:34.616Z,-1.50
2022-11-25T18:45:59.394Z,-1.48
2022-11-25T18:51:23.335Z,-1.48
2022-11-25T18:56:46.394Z,-1.46
2022-11-25T19:02:08.887Z,-1.46
2022-11-25T19:07:31.635Z,-1.45
2022-11-25T19:12:56.524Z,-1.46
2022-11-25T19:18:23.454Z,-1.48
2022-11-25T19:23:46.079Z,-1.55
2022-11-25T19:29:16.209Z,-1.56
2022-11-25T19:34:48.981Z,-1.57
2022-11-25T19:40:25.464Z,-1.60
2022-11-25T19:45:48.731Z,-1.63
2022-11-25T19:51:11.501Z,-1.58
2022-11-25T19:56:37.630Z,-1.60
2022-11-25T20:02:02.072Z,-1.64
2022-11-25T20:07:27.395Z,-1.61
2022-11-25T20:12:50.468Z,-1.65
2022-11-25T20:18:18.126Z,-1.72
2022-11-25T20:23:50.429Z,-1.74
2022-11-25T20:29:28.844Z,-1.77
2022-11-25T20:34:47.972Z,-1.83
2022-11-25T20:40:16.737Z,-1.97
2022-11-25T20:45:40.671Z,-2.08
2022-11-25T20:51:07.143Z,-2.20
2022-11-25T20:56:32.644Z,-2.33
2022-11-25T21:01:55.620Z,-2.33
2022-11-25T21:07:22.647Z,-2.36
2022-11-25T21:12:44.965Z,-2.45
2022-11-25T21:18:07.522Z,-2.52
2022-11-25T21:23:34.343Z,-2.64
2022-11-25T21:28:59.291Z,-2.63
2022-11-25T21:34:24.346Z,-2.75
2022-11-25T21:39:48.417Z,-2.87
2022-11-25T21:45:11.593Z,-2.82
2022-11-25T21:50:35.638Z,-2.89
2022-11-25T21:55:58.897Z,-2.95
2022-11-25T22:01:22.701Z,-2.98
2022-11-25T22:06:46.773Z,-3.01
2022-11-25T22:12:09.320Z,-3.11
2022-11-25T22:17:33.349Z,-3.25
2022-11-25T22:22:55.751Z,-3.14
2022-11-25T22:28:19.862Z,-3.15
2022-11-25T22:33:45.086Z,-3.17
2022-11-25T22:39:21.054Z,-3.19
2022-11-25T22:44:52.527Z,-3.21
2022-11-25T22:50:20.802Z,-3.31
2022-11-25T22:55:45.238Z,-3.37
2022-11-25T23:01:09.079Z,-3.28
2022-11-25T23:06:32.692Z,-3.35
2022-11-25T23:11:55.059Z,-3.46
2022-11-25T23:17:28.674Z,-3.54
2022-11-25T23:22:50.888Z,-3.41
2022-11-25T23:28:13.092Z,-3.41
2022-11-25T23:33:42.624Z,-3.43
2022-11-25T23:39:08.781Z,-3.43
2022-11-25T23:44:39.856Z,-3.47
2022-11-25T23:50:05.002Z,-3.46
2022-11-25T23:55:31.665Z,-3.64
